Imperia, Italy

1:55 PM CET on February 11, 2016 (GMT +0100)
Localita Colle Lupi | | Change Station
CLOSE
Current Station
Personal Weather Station
Location: Dolcedo, LIGURIEN
Elevation: 846 ft
Nearby Weather Stations

Elev 846 ft 43.91 °N, 7.96 °E | Updated 5 minutes ago

Partly Cloudy
Partly Cloudy
51.4 °F
Feels Like 51.4 °F
N
13.0
Wind Variable Wind from South
Gusts 0.0 mph

Today
High -- | Low -- °F
--% Chance of Precip.
Yesterday
High -- | Low -- °F
Precip. -- in
Pressure 29.77 in
Visibility 6.2 miles
Clouds Few 1600 ft
Dew Point 31 °F
Humidity 45%
Rainfall 0.00 in
Snow Depth Not available.
7:33 AM 5:51 PM
Waxing Crescent, 11% visible
METAR LFMN 111242Z 22007KT 9999 FEW016 13/M01 Q1008 NOSIG
Pressure 29.77 in
Visibility 6.2 miles
Clouds Few 1600 ft
Dew Point 31 °F
Humidity 45%
Rainfall 0.00 in
Snow Depth Not available.
7:33 AM 5:51 PM
Waxing Crescent, 11% visible
METAR LFMN 111242Z 22007KT 9999 FEW016 13/M01 Q1008 NOSIG

10-Day Weather Forecast

Almanac

Astronomy

Feb. 11, 2016 Rise Set
Actual Time
Civil Twilight
Nautical Twilight
Astronomical Twilight
Moon
Length of Visible Light
Length of Day
Tomorrow will be .
, % of the Moon is Illuminated

Today's Extremes

Country Highs Country Lows

Community

WunderPhotos

Upload Photos

1,892,037 photos uploaded!

WunderBlog® & News

Nearby

Air Quality

  Air Quality AQ Index Pollutant
Not available.

Snow Depth

Station Depth Elevation

Earthquake Activity

City Distance Mag. Time & Date
Minimum magnitude displayed is 2.5.

Coastal Water Temperatures

Place Temperature

Stations

Nearby Weather Stations

Station Location Temp. Windchill Dew Point Humidity Wind Precip. Elev Updated Type